createdAt,value
2022-09-13T00:09:18.045Z,491.85381
2022-09-13T00:24:20.260Z,505.57504
2022-09-13T00:39:22.507Z,525.8883
2022-09-13T00:54:24.711Z,530.22796
2022-09-13T01:09:26.918Z,523.93913
2022-09-13T01:24:29.237Z,489.13075
2022-09-13T01:39:31.735Z,459.25534
2022-09-13T01:54:33.997Z,453.65467
2022-09-13T02:09:36.305Z,449.90069
2022-09-13T02:24:38.710Z,454.52989
2022-09-13T02:39:41.019Z,435.21799
2022-09-13T02:54:43.513Z,471.19597
2022-09-13T03:09:45.806Z,460.4521
2022-09-13T03:24:48.161Z,420.71074
2022-09-13T03:39:50.416Z,358.96015
2022-09-13T03:54:52.963Z,365.37115
2022-09-13T04:09:55.231Z,367.30055
2022-09-13T04:25:01.531Z,398.19385
2022-09-13T04:40:04.694Z,391.35886
2022-09-13T04:55:07.049Z,361.19701
2022-09-13T05:10:09.257Z,351.7
2022-09-13T05:25:11.528Z,349.57888
2022-09-13T05:40:13.931Z,355.29299
2022-09-13T05:55:16.676Z,356.75083
2022-09-13T06:10:19.187Z,364.9877
2022-09-13T06:25:21.369Z,385.38392
2022-09-13T06:40:25.345Z,387.49677
2022-09-13T06:55:27.741Z,387.49677
2022-09-13T07:10:30.034Z,387.70933
2022-09-13T07:25:32.274Z,386.86049
2022-09-13T07:40:34.743Z,388.77564
2022-09-13T07:55:37.051Z,391.35886
2022-09-13T08:10:39.297Z,397.07533
2022-09-13T08:25:41.560Z,396.85238
2022-09-13T08:40:43.800Z,399.09322
2022-09-13T08:55:46.269Z,397.74569
2022-09-13T09:10:48.596Z,395.74137
2022-09-13T09:25:50.895Z,393.31892
2022-09-13T09:40:53.144Z,396.18503
2022-09-13T09:55:55.380Z,391.35886
2022-09-13T10:10:57.626Z,362.32592
2022-09-13T10:25:59.979Z,360.0751
2022-09-13T10:41:02.229Z,396.18503
2022-09-13T10:56:04.423Z,402.27324
2022-09-13T11:11:06.924Z,403.88233
2022-09-13T11:26:09.305Z,407.84424
2022-09-13T11:41:11.538Z,415.51679
2022-09-13T11:56:13.765Z,405.73713
2022-09-13T12:11:16.380Z,405.03958
2022-09-13T12:26:18.692Z,417.48024
2022-09-13T12:41:20.913Z,428.10056
2022-09-13T12:56:23.161Z,423.22996
2022-09-13T13:11:25.532Z,392.88166
2022-09-13T13:26:27.733Z,389.2038
2022-09-13T13:41:29.958Z,346.7902
2022-09-13T13:56:32.199Z,352.77025
2022-09-13T14:11:34.500Z,362.7038
2022-09-13T14:26:36.749Z,347.48319
2022-09-13T14:41:38.991Z,346.44474
2022-09-13T14:56:41.285Z,333.48859
2022-09-13T15:11:44.550Z,325.07229
2022-09-13T15:26:46.903Z,338.68488
2022-09-13T15:41:49.136Z,350.99011
2022-09-13T15:56:51.412Z,362.32592
2022-09-13T16:11:53.666Z,357.48424
2022-09-13T16:26:55.951Z,357.48424
2022-09-13T16:41:58.346Z,350.63624
2022-09-13T16:57:00.553Z,360.82226
2022-09-13T17:12:02.830Z,404.34444
2022-09-13T17:27:05.042Z,416.00592
2022-09-13T17:42:07.300Z,425.77954
2022-09-13T17:57:09.579Z,432.55448
2022-09-13T18:12:11.833Z,426.29314
2022-09-13T18:27:14.051Z,407.60904
2022-09-13T18:42:16.389Z,415.0288
2022-09-13T18:57:18.642Z,394.41635
2022-09-13T19:12:20.959Z,395.29871
2022-09-13T19:27:23.151Z,413.57171
2022-09-13T19:42:25.377Z,412.12482
2022-09-13T19:57:27.874Z,418.71685
2022-09-13T20:12:30.127Z,410.92678
2022-09-13T20:27:32.334Z,419.96081
2022-09-13T20:42:34.544Z,425.01145
2022-09-13T20:57:37.041Z,394.63657
2022-09-13T21:12:39.363Z,393.10017
2022-09-13T21:27:41.633Z,388.34841
2022-09-13T21:42:43.902Z,398.868
2022-09-13T21:57:46.205Z,420.96131
2022-09-13T22:12:48.453Z,424.75603
2022-09-13T22:27:50.705Z,416.00592
2022-09-13T22:42:52.945Z,436.8319
2022-09-13T22:57:55.209Z,463.16774
2022-09-13T23:12:57.421Z,469.94279
2022-09-13T23:27:59.654Z,474.35836
2022-09-13T23:43:01.952Z,495.64791
2022-09-13T23:58:04.207Z,499.14824
